sensor_id;sensor_type;location;lat;lon;timestamp;pressure;altitude;pressure_sealevel;temperature;humidity
61039;BME280;46919;45.816;3.104;2023-06-26T00:00:02;97992.97;;;22.83;67.99
61039;BME280;46919;45.816;3.104;2023-06-26T00:02:29;97989.91;;;22.85;68.04
61039;BME280;46919;45.816;3.104;2023-06-26T00:04:58;97991.25;;;22.87;68.56
61039;BME280;46919;45.816;3.104;2023-06-26T00:07:23;97996.16;;;22.90;67.38
61039;BME280;46919;45.816;3.104;2023-06-26T00:09:48;97997.19;;;22.94;66.84
61039;BME280;46919;45.816;3.104;2023-06-26T00:12:14;98003.84;;;22.93;67.33
61039;BME280;46919;45.816;3.104;2023-06-26T00:14:39;98004.75;;;22.89;67.89
61039;BME280;46919;45.816;3.104;2023-06-26T00:17:04;98013.81;;;22.89;67.37
61039;BME280;46919;45.816;3.104;2023-06-26T00:19:30;98013.59;;;22.86;67.99
61039;BME280;46919;45.816;3.104;2023-06-26T00:21:55;98001.03;;;22.79;68.38
61039;BME280;46919;45.816;3.104;2023-06-26T00:24:21;98007.34;;;22.80;68.65
61039;BME280;46919;45.816;3.104;2023-06-26T00:26:47;98008.06;;;22.72;69.17
61039;BME280;46919;45.816;3.104;2023-06-26T00:29:13;98024.13;;;22.65;70.05
61039;BME280;46919;45.816;3.104;2023-06-26T00:31:38;98018.25;;;22.71;68.79
61039;BME280;46919;45.816;3.104;2023-06-26T00:34:05;98023.38;;;22.78;69.16
61039;BME280;46919;45.816;3.104;2023-06-26T00:36:31;98021.53;;;22.73;69.05
61039;BME280;46919;45.816;3.104;2023-06-26T00:38:56;98023.28;;;22.50;69.44
61039;BME280;46919;45.816;3.104;2023-06-26T00:41:21;98028.19;;;22.53;69.76
61039;BME280;46919;45.816;3.104;2023-06-26T00:43:47;98026.13;;;22.45;70.62
61039;BME280;46919;45.816;3.104;2023-06-26T00:46:13;98031.41;;;22.41;70.79
61039;BME280;46919;45.816;3.104;2023-06-26T00:48:41;98030.06;;;22.39;70.59
61039;BME280;46919;45.816;3.104;2023-06-26T00:51:07;98034.34;;;22.26;71.11
61039;BME280;46919;45.816;3.104;2023-06-26T00:53:34;98037.63;;;22.09;72.32
61039;BME280;46919;45.816;3.104;2023-06-26T00:56:01;98038.28;;;22.01;72.95
61039;BME280;46919;45.816;3.104;2023-06-26T00:58:27;98040.59;;;21.94;73.19
61039;BME280;46919;45.816;3.104;2023-06-26T01:00:53;98036.56;;;21.86;73.67
61039;BME280;46919;45.816;3.104;2023-06-26T01:03:20;98032.38;;;21.88;73.09
61039;BME280;46919;45.816;3.104;2023-06-26T01:05:46;98038.94;;;21.93;72.81
61039;BME280;46919;45.816;3.104;2023-06-26T01:08:15;98032.78;;;22.01;72.31
61039;BME280;46919;45.816;3.104;2023-06-26T01:10:41;98038.78;;;22.03;72.71
61039;BME280;46919;45.816;3.104;2023-06-26T01:13:07;98041.41;;;21.94;73.12
61039;BME280;46919;45.816;3.104;2023-06-26T01:15:33;98043.03;;;21.76;74.24
61039;BME280;46919;45.816;3.104;2023-06-26T01:17:59;98042.09;;;21.62;74.90
61039;BME280;46919;45.816;3.104;2023-06-26T01:20:31;98041.31;;;21.56;75.25
61039;BME280;46919;45.816;3.104;2023-06-26T01:23:09;98041.78;;;21.63;75.40
61039;BME280;46919;45.816;3.104;2023-06-26T01:28:39;98047.34;;;21.58;75.83
61039;BME280;46919;45.816;3.104;2023-06-26T01:31:06;98051.06;;;21.43;76.33
61039;BME280;46919;45.816;3.104;2023-06-26T01:33:32;98052.81;;;21.34;76.89
61039;BME280;46919;45.816;3.104;2023-06-26T01:35:58;98055.38;;;21.25;77.44
61039;BME280;46919;45.816;3.104;2023-06-26T01:38:23;98059.00;;;21.21;77.84
61039;BME280;46919;45.816;3.104;2023-06-26T01:40:50;98062.06;;;21.19;78.49
61039;BME280;46919;45.816;3.104;2023-06-26T01:43:29;98066.03;;;21.32;78.41
61039;BME280;46919;45.816;3.104;2023-06-26T01:46:01;98075.28;;;21.41;77.55
61039;BME280;46919;45.816;3.104;2023-06-26T01:48:38;98075.53;;;21.15;78.40
61039;BME280;46919;45.816;3.104;2023-06-26T01:51:06;98086.91;;;21.04;79.36
61039;BME280;46919;45.816;3.104;2023-06-26T01:53:38;98075.53;;;21.15;79.37
61039;BME280;46919;45.816;3.104;2023-06-26T01:56:07;98085.00;;;21.33;78.99
61039;BME280;46919;45.816;3.104;2023-06-26T01:58:35;98082.09;;;21.20;78.88
61039;BME280;46919;45.816;3.104;2023-06-26T02:01:02;98084.94;;;21.09;79.02
61039;BME280;46919;45.816;3.104;2023-06-26T02:03:27;98078.38;;;21.05;79.51
61039;BME280;46919;45.816;3.104;2023-06-26T02:05:53;98091.91;;;20.96;80.11
61039;BME280;46919;45.816;3.104;2023-06-26T02:08:18;98091.69;;;20.93;80.47
61039;BME280;46919;45.816;3.104;2023-06-26T02:10:43;98092.50;;;20.93;80.77
61039;BME280;46919;45.816;3.104;2023-06-26T02:13:09;98088.81;;;21.08;80.76
61039;BME280;46919;45.816;3.104;2023-06-26T02:15:34;98078.53;;;21.19;80.50
61039;BME280;46919;45.816;3.104;2023-06-26T02:18:00;98075.88;;;21.09;80.42
61039;BME280;46919;45.816;3.104;2023-06-26T02:20:25;98080.03;;;21.06;80.64
61039;BME280;46919;45.816;3.104;2023-06-26T02:22:50;98076.94;;;21.13;79.97
61039;BME280;46919;45.816;3.104;2023-06-26T02:25:17;98081.03;;;21.15;79.90
61039;BME280;46919;45.816;3.104;2023-06-26T02:27:42;98091.03;;;21.06;80.32
61039;BME280;46919;45.816;3.104;2023-06-26T02:30:08;98095.56;;;20.87;81.46
61039;BME280;46919;45.816;3.104;2023-06-26T02:32:34;98091.25;;;20.75;82.09
61039;BME280;46919;45.816;3.104;2023-06-26T02:34:59;98095.72;;;20.66;82.39
61039;BME280;46919;45.816;3.104;2023-06-26T02:37:25;98099.00;;;20.63;83.14
61039;BME280;46919;45.816;3.104;2023-06-26T02:39:50;98095.44;;;20.62;82.74
61039;BME280;46919;45.816;3.104;2023-06-26T02:42:16;98097.97;;;20.54;83.55
61039;BME280;46919;45.816;3.104;2023-06-26T02:44:41;98095.75;;;20.61;83.46
61039;BME280;46919;45.816;3.104;2023-06-26T02:47:06;98096.25;;;20.63;83.22
61039;BME280;46919;45.816;3.104;2023-06-26T02:49:32;98100.22;;;20.47;84.28
61039;BME280;46919;45.816;3.104;2023-06-26T02:51:57;98103.03;;;20.36;85.00
61039;BME280;46919;45.816;3.104;2023-06-26T02:54:22;98100.06;;;20.27;85.72
61039;BME280;46919;45.816;3.104;2023-06-26T02:56:48;98100.88;;;20.28;85.70
61039;BME280;46919;45.816;3.104;2023-06-26T02:59:14;98098.09;;;20.38;85.61
61039;BME280;46919;45.816;3.104;2023-06-26T03:01:39;98093.41;;;20.39;85.37
61039;BME280;46919;45.816;3.104;2023-06-26T03:04:04;98098.97;;;20.29;86.51
61039;BME280;46919;45.816;3.104;2023-06-26T03:06:30;98102.25;;;20.31;86.34
61039;BME280;46919;45.816;3.104;2023-06-26T03:08:55;98107.72;;;20.31;86.32
61039;BME280;46919;45.816;3.104;2023-06-26T03:11:20;98101.88;;;20.42;85.61
61039;BME280;46919;45.816;3.104;2023-06-26T03:13:46;98109.06;;;20.38;85.82
61039;BME280;46919;45.816;3.104;2023-06-26T03:16:12;98114.00;;;20.41;85.95
61039;BME280;46919;45.816;3.104;2023-06-26T03:18:37;98105.16;;;20.50;85.34
61039;BME280;46919;45.816;3.104;2023-06-26T03:21:03;98105.63;;;20.57;84.68
61039;BME280;46919;45.816;3.104;2023-06-26T03:23:28;98110.00;;;20.63;84.57
61039;BME280;46919;45.816;3.104;2023-06-26T03:25:53;98105.63;;;20.62;85.04
61039;BME280;46919;45.816;3.104;2023-06-26T03:28:19;98105.63;;;20.62;84.96
61039;BME280;46919;45.816;3.104;2023-06-26T03:30:44;98109.47;;;20.66;84.73
61039;BME280;46919;45.816;3.104;2023-06-26T03:33:10;98119.31;;;20.72;84.25
61039;BME280;46919;45.816;3.104;2023-06-26T03:35:36;98111.69;;;20.64;84.76
61039;BME280;46919;45.816;3.104;2023-06-26T03:38:03;98113.34;;;20.55;85.14
61039;BME280;46919;45.816;3.104;2023-06-26T03:40:28;98118.03;;;20.54;85.34
61039;BME280;46919;45.816;3.104;2023-06-26T03:42:54;98121.53;;;20.60;85.48
61039;BME280;46919;45.816;3.104;2023-06-26T03:45:19;98133.66;;;20.59;86.12
61039;BME280;46919;45.816;3.104;2023-06-26T03:47:45;98129.06;;;20.49;86.62
61039;BME280;46919;45.816;3.104;2023-06-26T03:50:14;98121.38;;;20.46;86.82
61039;BME280;46919;45.816;3.104;2023-06-26T03:52:39;98132.38;;;20.46;86.44
61039;BME280;46919;45.816;3.104;2023-06-26T03:55:05;98141.19;;;20.33;87.35
61039;BME280;46919;45.816;3.104;2023-06-26T03:57:30;98143.94;;;20.33;87.59
61039;BME280;46919;45.816;3.104;2023-06-26T03:59:56;98143.13;;;20.32;87.83
61039;BME280;46919;45.816;3.104;2023-06-26T04:02:21;98139.59;;;20.26;88.14
61039;BME280;46919;45.816;3.104;2023-06-26T04:05:01;98152.50;;;20.26;88.61
61039;BME280;46919;45.816;3.104;2023-06-26T04:07:27;98151.38;;;20.32;87.69
61039;BME280;46919;45.816;3.104;2023-06-26T04:09:52;98146.50;;;20.14;88.75
61039;BME280;46919;45.816;3.104;2023-06-26T04:12:18;98148.47;;;20.08;89.08
61039;BME280;46919;45.816;3.104;2023-06-26T04:14:43;98151.50;;;20.06;88.94
61039;BME280;46919;45.816;3.104;2023-06-26T04:17:09;98156.13;;;20.06;89.49
61039;BME280;46919;45.816;3.104;2023-06-26T04:19:35;98158.34;;;20.04;89.35
61039;BME280;46919;45.816;3.104;2023-06-26T04:22:01;98160.28;;;20.03;89.71
61039;BME280;46919;45.816;3.104;2023-06-26T04:24:26;98155.31;;;20.05;90.25
61039;BME280;46919;45.816;3.104;2023-06-26T04:26:52;98160.50;;;20.12;90.65
61039;BME280;46919;45.816;3.104;2023-06-26T04:29:17;98158.03;;;20.11;90.82
61039;BME280;46919;45.816;3.104;2023-06-26T04:31:42;98169.59;;;20.02;90.93
61039;BME280;46919;45.816;3.104;2023-06-26T04:34:13;98169.06;;;19.95;91.91
61039;BME280;46919;45.816;3.104;2023-06-26T04:36:38;98165.25;;;19.91;92.02
61039;BME280;46919;45.816;3.104;2023-06-26T04:39:04;98172.94;;;19.94;92.36
61039;BME280;46919;45.816;3.104;2023-06-26T04:41:29;98169.09;;;19.90;92.70
61039;BME280;46919;45.816;3.104;2023-06-26T04:43:55;98178.97;;;19.91;92.74
61039;BME280;46919;45.816;3.104;2023-06-26T04:46:20;98171.81;;;19.95;92.31
61039;BME280;46919;45.816;3.104;2023-06-26T04:48:46;98174.25;;;20.07;92.25
61039;BME280;46919;45.816;3.104;2023-06-26T04:51:11;98175.91;;;19.98;92.90
61039;BME280;46919;45.816;3.104;2023-06-26T04:53:37;98181.72;;;19.91;93.54
61039;BME280;46919;45.816;3.104;2023-06-26T04:56:03;98186.94;;;19.87;93.93
61039;BME280;46919;45.816;3.104;2023-06-26T04:58:28;98178.97;;;19.91;94.05
61039;BME280;46919;45.816;3.104;2023-06-26T05:00:54;98194.31;;;19.97;93.77
61039;BME280;46919;45.816;3.104;2023-06-26T05:03:19;98200.88;;;19.96;93.82
61039;BME280;46919;45.816;3.104;2023-06-26T05:05:45;98202.53;;;20.02;93.49
61039;BME280;46919;45.816;3.104;2023-06-26T05:08:31;98192.91;;;20.05;93.83
61039;BME280;46919;45.816;3.104;2023-06-26T05:10:56;98197.28;;;20.06;93.73
61039;BME280;46919;45.816;3.104;2023-06-26T05:13:24;98195.91;;;20.08;93.97
61039;BME280;46919;45.816;3.104;2023-06-26T05:15:49;98199.44;;;20.14;94.26
61039;BME280;46919;45.816;3.104;2023-06-26T05:18:15;98197.56;;;20.15;93.84
61039;BME280;46919;45.816;3.104;2023-06-26T05:20:41;98205.75;;;20.20;94.52
61039;BME280;46919;45.816;3.104;2023-06-26T05:23:06;98203.53;;;20.22;93.46
61039;BME280;46919;45.816;3.104;2023-06-26T05:25:32;98201.34;;;20.19;94.07
61039;BME280;46919;45.816;3.104;2023-06-26T05:27:59;98202.72;;;20.21;93.67
61039;BME280;46919;45.816;3.104;2023-06-26T05:30:26;98202.44;;;20.23;93.87
61039;BME280;46919;45.816;3.104;2023-06-26T05:32:53;98189.22;;;20.35;93.60
61039;BME280;46919;45.816;3.104;2023-06-26T05:35:20;98193.31;;;20.43;93.37
61039;BME280;46919;45.816;3.104;2023-06-26T05:37:49;98195.78;;;20.44;92.74
61039;BME280;46919;45.816;3.104;2023-06-26T05:40:18;98195.75;;;20.50;91.88
61039;BME280;46919;45.816;3.104;2023-06-26T05:42:44;98193.53;;;20.52;91.93
61039;BME280;46919;45.816;3.104;2023-06-26T05:45:10;98197.88;;;20.63;92.17
61039;BME280;46919;45.816;3.104;2023-06-26T05:47:36;98200.88;;;20.72;92.04
61039;BME280;46919;45.816;3.104;2023-06-26T05:50:02;98196.16;;;20.77;92.19
61039;BME280;46919;45.816;3.104;2023-06-26T05:52:28;98211.31;;;20.75;92.45
61039;BME280;46919;45.816;3.104;2023-06-26T05:54:55;98212.13;;;20.75;92.66
61039;BME280;46919;45.816;3.104;2023-06-26T05:57:24;98207.72;;;20.74;91.95
61039;BME280;46919;45.816;3.104;2023-06-26T05:59:51;98212.94;;;20.76;92.64
61039;BME280;46919;45.816;3.104;2023-06-26T06:02:16;98211.84;;;20.77;92.19
61039;BME280;46919;45.816;3.104;2023-06-26T06:04:42;98212.06;;;20.86;91.61
61039;BME280;46919;45.816;3.104;2023-06-26T06:07:07;98213.66;;;20.92;90.91
61039;BME280;46919;45.816;3.104;2023-06-26T06:09:32;98219.13;;;20.97;91.06
61039;BME280;46919;45.816;3.104;2023-06-26T06:11:59;98221.31;;;21.00;91.08
61039;BME280;46919;45.816;3.104;2023-06-26T06:14:25;98225.72;;;20.96;90.77
61039;BME280;46919;45.816;3.104;2023-06-26T06:16:50;98232.28;;;21.05;90.83
61039;BME280;46919;45.816;3.104;2023-06-26T06:19:15;98226.19;;;21.08;90.70
61039;BME280;46919;45.816;3.104;2023-06-26T06:21:41;98232.19;;;21.15;89.77
61039;BME280;46919;45.816;3.104;2023-06-26T06:24:06;98231.63;;;21.18;89.56
61039;BME280;46919;45.816;3.104;2023-06-26T06:26:32;98234.63;;;21.22;89.35
61039;BME280;46919;45.816;3.104;2023-06-26T06:28:58;98242.56;;;21.29;88.44
61039;BME280;46919;45.816;3.104;2023-06-26T06:31:23;98241.69;;;21.33;88.88
61039;BME280;46919;45.816;3.104;2023-06-26T06:33:49;98234.78;;;21.36;89.40
61039;BME280;46919;45.816;3.104;2023-06-26T06:36:14;98229.25;;;21.41;88.67
61039;BME280;46919;45.816;3.104;2023-06-26T06:38:43;98233.88;;;21.51;89.01
61039;BME280;46919;45.816;3.104;2023-06-26T06:41:09;98227.81;;;21.54;88.17
61039;BME280;46919;45.816;3.104;2023-06-26T06:43:34;98228.91;;;21.53;88.08
61039;BME280;46919;45.816;3.104;2023-06-26T06:45:59;98225.00;;;21.59;86.99
61039;BME280;46919;45.816;3.104;2023-06-26T06:48:25;98221.84;;;21.71;86.47
61039;BME280;46919;45.816;3.104;2023-06-26T06:50:50;98228.97;;;21.77;86.01
61039;BME280;46919;45.816;3.104;2023-06-26T06:53:15;98227.38;;;21.71;85.41
61039;BME280;46919;45.816;3.104;2023-06-26T06:55:41;98226.84;;;21.69;84.89
61039;BME280;46919;45.816;3.104;2023-06-26T06:58:06;98227.84;;;21.78;84.05
61039;BME280;46919;45.816;3.104;2023-06-26T07:00:31;98228.31;;;21.85;83.75
61039;BME280;46919;45.816;3.104;2023-06-26T07:02:57;98233.72;;;21.96;83.46
61039;BME280;46919;45.816;3.104;2023-06-26T07:05:23;98233.59;;;22.11;82.63
61039;BME280;46919;45.816;3.104;2023-06-26T07:07:48;98236.78;;;22.18;81.06
61039;BME280;46919;45.816;3.104;2023-06-26T07:10:14;98232.56;;;22.26;79.48
61039;BME280;46919;45.816;3.104;2023-06-26T07:12:39;98237.84;;;22.22;77.62
61039;BME280;46919;45.816;3.104;2023-06-26T07:15:05;98239.59;;;22.13;77.61
61039;BME280;46919;45.816;3.104;2023-06-26T07:17:32;98246.56;;;22.05;76.54
61039;BME280;46919;45.816;3.104;2023-06-26T07:19:58;98242.28;;;21.94;76.46
61039;BME280;46919;45.816;3.104;2023-06-26T07:22:24;98247.28;;;21.87;76.31
61039;BME280;46919;45.816;3.104;2023-06-26T07:24:49;98249.56;;;21.80;76.17
61039;BME280;46919;45.816;3.104;2023-06-26T07:27:15;98245.72;;;21.81;76.15
61039;BME280;46919;45.816;3.104;2023-06-26T07:29:41;98240.41;;;21.89;75.41
61039;BME280;46919;45.816;3.104;2023-06-26T07:32:07;98255.53;;;21.87;74.73
61039;BME280;46919;45.816;3.104;2023-06-26T07:34:32;98245.03;;;21.94;74.51
61039;BME280;46919;45.816;3.104;2023-06-26T07:36:58;98254.59;;;22.02;74.22
61039;BME280;46919;45.816;3.104;2023-06-26T07:39:23;98258.38;;;22.06;74.37
61039;BME280;46919;45.816;3.104;2023-06-26T07:41:48;98252.50;;;22.18;72.90
61039;BME280;46919;45.816;3.104;2023-06-26T07:44:14;98254.84;;;22.30;72.32
61039;BME280;46919;45.816;3.104;2023-06-26T07:46:39;98253.03;;;22.44;71.40
61039;BME280;46919;45.816;3.104;2023-06-26T07:49:05;98254.75;;;22.40;70.70
61039;BME280;46919;45.816;3.104;2023-06-26T07:51:30;98254.63;;;22.50;70.87
61039;BME280;46919;45.816;3.104;2023-06-26T07:53:55;98256.19;;;22.56;70.44
61039;BME280;46919;45.816;3.104;2023-06-26T07:56:21;98259.88;;;22.71;69.26
61039;BME280;46919;45.816;3.104;2023-06-26T07:58:46;98258.47;;;22.73;68.39
61039;BME280;46919;45.816;3.104;2023-06-26T08:01:11;98263.25;;;22.87;68.41
61039;BME280;46919;45.816;3.104;2023-06-26T08:03:37;98260.19;;;23.07;67.67
61039;BME280;46919;45.816;3.104;2023-06-26T08:06:02;98269.84;;;23.10;66.36
61039;BME280;46919;45.816;3.104;2023-06-26T08:08:28;98269.03;;;23.09;65.18
61039;BME280;46919;45.816;3.104;2023-06-26T08:10:54;98260.81;;;23.23;64.57
61039;BME280;46919;45.816;3.104;2023-06-26T08:13:19;98269.84;;;23.29;64.68
61039;BME280;46919;45.816;3.104;2023-06-26T08:15:44;98277.16;;;23.39;64.64
61039;BME280;46919;45.816;3.104;2023-06-26T08:18:10;98275.50;;;23.19;62.92
61039;BME280;46919;45.816;3.104;2023-06-26T08:20:36;98281.59;;;23.15;63.84
61039;BME280;46919;45.816;3.104;2023-06-26T08:23:03;98278.63;;;23.31;62.85
61039;BME280;46919;45.816;3.104;2023-06-26T08:25:29;98273.63;;;23.52;62.50
61039;BME280;46919;45.816;3.104;2023-06-26T08:27:54;98278.19;;;23.76;62.18
61039;BME280;46919;45.816;3.104;2023-06-26T08:30:20;98285.84;;;23.98;61.71
61039;BME280;46919;45.816;3.104;2023-06-26T08:32:46;98280.56;;;24.01;60.92
61039;BME280;46919;45.816;3.104;2023-06-26T08:35:11;98287.00;;;23.97;60.35
61039;BME280;46919;45.816;3.104;2023-06-26T08:37:37;98282.19;;;24.02;61.02
61039;BME280;46919;45.816;3.104;2023-06-26T08:40:03;98278.31;;;24.03;60.09
61039;BME280;46919;45.816;3.104;2023-06-26T08:42:29;98270.59;;;23.86;59.34
61039;BME280;46919;45.816;3.104;2023-06-26T08:44:55;98287.94;;;24.20;59.19
61039;BME280;46919;45.816;3.104;2023-06-26T08:47:21;98286.81;;;24.21;60.00
61039;BME280;46919;45.816;3.104;2023-06-26T08:49:53;98284.28;;;24.38;60.11
61039;BME280;46919;45.816;3.104;2023-06-26T08:52:24;98277.22;;;24.74;57.99
61039;BME280;46919;45.816;3.104;2023-06-26T08:54:58;98282.88;;;24.69;57.58
61039;BME280;46919;45.816;3.104;2023-06-26T08:57:25;98281.53;;;24.80;58.06
61039;BME280;46919;45.816;3.104;2023-06-26T08:59:51;98278.16;;;24.69;57.48
61039;BME280;46919;45.816;3.104;2023-06-26T09:02:17;98278.56;;;24.90;57.44
61039;BME280;46919;45.816;3.104;2023-06-26T09:04:43;98277.09;;;24.93;56.86
61039;BME280;46919;45.816;3.104;2023-06-26T09:07:08;98280.09;;;24.97;55.94
61039;BME280;46919;45.816;3.104;2023-06-26T09:09:35;98278.72;;;25.08;55.24
61039;BME280;46919;45.816;3.104;2023-06-26T09:12:02;98279.94;;;25.16;54.80
61039;BME280;46919;45.816;3.104;2023-06-26T09:14:29;98286.44;;;24.69;54.85
61039;BME280;46919;45.816;3.104;2023-06-26T09:16:54;98288.38;;;24.55;55.11
61039;BME280;46919;45.816;3.104;2023-06-26T09:19:20;98288.47;;;24.50;55.22
61039;BME280;46919;45.816;3.104;2023-06-26T09:21:49;98293.88;;;24.55;55.38
61039;BME280;46919;45.816;3.104;2023-06-26T09:24:14;98290.41;;;24.35;56.16
61039;BME280;46919;45.816;3.104;2023-06-26T09:26:40;98291.13;;;24.27;56.12
61039;BME280;46919;45.816;3.104;2023-06-26T09:29:06;98296.16;;;24.25;56.54
61039;BME280;46919;45.816;3.104;2023-06-26T09:31:37;98291.59;;;24.01;55.86
61039;BME280;46919;45.816;3.104;2023-06-26T09:34:03;98292.97;;;23.85;56.78
61039;BME280;46919;45.816;3.104;2023-06-26T09:36:29;98295.34;;;23.73;56.81
61039;BME280;46919;45.816;3.104;2023-06-26T09:39:05;98297.72;;;23.98;57.29
61039;BME280;46919;45.816;3.104;2023-06-26T09:41:37;98300.72;;;24.16;56.61
61039;BME280;46919;45.816;3.104;2023-06-26T09:44:05;98298.69;;;24.35;56.66
61039;BME280;46919;45.816;3.104;2023-06-26T09:46:30;98294.72;;;24.55;55.51
61039;BME280;46919;45.816;3.104;2023-06-26T09:49:14;98280.03;;;24.60;54.70
61039;BME280;46919;45.816;3.104;2023-06-26T09:51:41;98288.22;;;24.65;54.51
61039;BME280;46919;45.816;3.104;2023-06-26T09:54:07;98280.91;;;24.69;54.91
61039;BME280;46919;45.816;3.104;2023-06-26T09:56:34;98283.25;;;24.90;54.42
61039;BME280;46919;45.816;3.104;2023-06-26T09:59:02;98276.72;;;24.72;54.21
61039;BME280;46919;45.816;3.104;2023-06-26T10:01:29;98281.16;;;24.59;54.85
61039;BME280;46919;45.816;3.104;2023-06-26T10:03:54;98273.75;;;24.54;55.77
61039;BME280;46919;45.816;3.104;2023-06-26T10:06:33;98281.22;;;24.54;55.47
61039;BME280;46919;45.816;3.104;2023-06-26T10:09:01;98272.22;;;24.48;55.70
61039;BME280;46919;45.816;3.104;2023-06-26T10:11:41;98279.88;;;24.51;54.96
61039;BME280;46919;45.816;3.104;2023-06-26T10:14:10;98279.56;;;24.39;54.91
61039;BME280;46919;45.816;3.104;2023-06-26T10:16:37;98285.09;;;24.39;55.16
61039;BME280;46919;45.816;3.104;2023-06-26T10:19:06;98282.84;;;24.27;54.60
61039;BME280;46919;45.816;3.104;2023-06-26T10:21:34;98278.13;;;24.28;54.93
61039;BME280;46919;45.816;3.104;2023-06-26T10:24:00;98277.31;;;24.27;55.12
61039;BME280;46919;45.816;3.104;2023-06-26T10:26:28;98279.56;;;24.39;57.54
61039;BME280;46919;45.816;3.104;2023-06-26T10:28:55;98275.56;;;24.45;57.23
61039;BME280;46919;45.816;3.104;2023-06-26T10:31:23;98280.84;;;24.61;57.35
61039;BME280;46919;45.816;3.104;2023-06-26T10:33:51;98278.00;;;25.02;56.03
61039;BME280;46919;45.816;3.104;2023-06-26T10:36:20;98270.50;;;25.30;56.14
61039;BME280;46919;45.816;3.104;2023-06-26T10:38:55;98256.69;;;25.76;54.73
61039;BME280;46919;45.816;3.104;2023-06-26T10:41:22;98258.06;;;25.96;53.35
61039;BME280;46919;45.816;3.104;2023-06-26T10:44:11;98265.09;;;26.25;53.51
61039;BME280;46919;45.816;3.104;2023-06-26T10:49:20;98258.03;;;26.10;53.84
61039;BME280;46919;45.816;3.104;2023-06-26T10:51:50;98261.03;;;26.22;55.46
61039;BME280;46919;45.816;3.104;2023-06-26T10:54:18;98245.34;;;26.57;53.63
61039;BME280;46919;45.816;3.104;2023-06-26T10:56:49;98242.63;;;26.75;51.69
61039;BME280;46919;45.816;3.104;2023-06-26T10:59:17;98253.25;;;26.73;50.96
61039;BME280;46919;45.816;3.104;2023-06-26T11:01:44;98245.88;;;26.77;50.76
61039;BME280;46919;45.816;3.104;2023-06-26T11:04:10;98251.78;;;26.84;51.01
61039;BME280;46919;45.816;3.104;2023-06-26T11:06:37;98241.53;;;26.93;49.82
61039;BME280;46919;45.816;3.104;2023-06-26T11:09:08;98244.13;;;26.99;50.55
61039;BME280;46919;45.816;3.104;2023-06-26T11:14:17;98245.66;;;27.40;48.41
61039;BME280;46919;45.816;3.104;2023-06-26T11:16:43;98240.28;;;27.35;48.20
61039;BME280;46919;45.816;3.104;2023-06-26T11:19:09;98235.66;;;27.21;49.19
61039;BME280;46919;45.816;3.104;2023-06-26T11:21:36;98241.53;;;27.02;47.91
61039;BME280;46919;45.816;3.104;2023-06-26T11:24:03;98236.75;;;26.68;49.10
61039;BME280;46919;45.816;3.104;2023-06-26T11:26:29;98234.81;;;26.94;49.37
61039;BME280;46919;45.816;3.104;2023-06-26T11:28:55;98226.50;;;27.29;49.01
61039;BME280;46919;45.816;3.104;2023-06-26T11:33:49;98234.03;;;27.20;48.70
61039;BME280;46919;45.816;3.104;2023-06-26T11:36:15;98239.56;;;26.85;51.48
61039;BME280;46919;45.816;3.104;2023-06-26T11:38:40;98233.06;;;27.07;50.24
61039;BME280;46919;45.816;3.104;2023-06-26T11:41:05;98223.69;;;26.77;49.76
61039;BME280;46919;45.816;3.104;2023-06-26T11:43:33;98228.69;;;26.57;49.98
61039;BME280;46919;45.816;3.104;2023-06-26T11:45:59;98225.44;;;26.64;50.35
61039;BME280;46919;45.816;3.104;2023-06-26T11:48:25;98216.22;;;27.04;49.98
61039;BME280;46919;45.816;3.104;2023-06-26T11:50:51;98213.16;;;27.49;49.98
61039;BME280;46919;45.816;3.104;2023-06-26T11:53:17;98224.53;;;27.74;49.46
61039;BME280;46919;45.816;3.104;2023-06-26T11:55:42;98217.97;;;27.87;48.91
61039;BME280;46919;45.816;3.104;2023-06-26T11:58:08;98217.53;;;27.59;52.20
61039;BME280;46919;45.816;3.104;2023-06-26T12:00:33;98214.75;;;27.50;49.48
61039;BME280;46919;45.816;3.104;2023-06-26T12:02:59;98204.13;;;27.70;48.58
61039;BME280;46919;45.816;3.104;2023-06-26T12:05:24;98210.53;;;28.17;47.58
61039;BME280;46919;45.816;3.104;2023-06-26T12:07:50;98214.22;;;28.39;46.21
61039;BME280;46919;45.816;3.104;2023-06-26T12:10:17;98212.38;;;28.43;45.60
61039;BME280;46919;45.816;3.104;2023-06-26T12:12:45;98199.53;;;28.60;44.90
61039;BME280;46919;45.816;3.104;2023-06-26T12:15:13;98217.31;;;28.67;48.85
61039;BME280;46919;45.816;3.104;2023-06-26T12:17:40;98202.44;;;28.93;45.76
61039;BME280;46919;45.816;3.104;2023-06-26T12:20:17;98207.16;;;28.71;44.79
61039;BME280;46919;45.816;3.104;2023-06-26T12:22:45;98205.50;;;28.11;46.14
61039;BME280;46919;45.816;3.104;2023-06-26T12:25:12;98201.31;;;27.87;46.58
61039;BME280;46919;45.816;3.104;2023-06-26T12:27:38;98204.00;;;27.57;47.80
61039;BME280;46919;45.816;3.104;2023-06-26T12:30:04;98206.28;;;28.20;46.43
61039;BME280;46919;45.816;3.104;2023-06-26T12:32:30;98192.56;;;28.45;44.38
61039;BME280;46919;45.816;3.104;2023-06-26T12:34:57;98195.81;;;28.47;46.61
61039;BME280;46919;45.816;3.104;2023-06-26T12:37:22;98197.56;;;28.90;44.75
61039;BME280;46919;45.816;3.104;2023-06-26T12:39:55;98194.31;;;29.09;43.94
61039;BME280;46919;45.816;3.104;2023-06-26T12:42:25;98189.13;;;29.20;43.60
61039;BME280;46919;45.816;3.104;2023-06-26T12:44:52;98188.34;;;29.53;42.60
61039;BME280;46919;45.816;3.104;2023-06-26T12:47:23;98193.09;;;29.19;42.26
61039;BME280;46919;45.816;3.104;2023-06-26T12:49:52;98195.28;;;29.47;42.39
61039;BME280;46919;45.816;3.104;2023-06-26T12:52:18;98184.56;;;29.70;42.26
61039;BME280;46919;45.816;3.104;2023-06-26T12:54:45;98192.00;;;29.78;41.89
61039;BME280;46919;45.816;3.104;2023-06-26T12:57:12;98197.41;;;29.95;41.06
61039;BME280;46919;45.816;3.104;2023-06-26T12:59:39;98194.75;;;30.11;41.88
61039;BME280;46919;45.816;3.104;2023-06-26T13:02:05;98195.59;;;30.24;42.65
61039;BME280;46919;45.816;3.104;2023-06-26T13:04:31;98189.34;;;30.64;40.78
61039;BME280;46919;45.816;3.104;2023-06-26T13:06:57;98194.66;;;30.82;40.69